Kirsehir, Turkey

8:39 PM +03 on December 03, 2016 (GMT +0300)
Kapadokya | | Change Station

Elev 3100 ft 38.77 °N, 34.53 °E | Updated 19 minutes ago

Mostly Cloudy
Mostly Cloudy
32 °F
Feels Like 24 °F
N
10
Wind Variable Wind from ESE

Today
High -- | Low -- °F
--% Chance of Precip.
Yesterday
High -- | Low -- °F
Precip. -- in
Pressure 30.27 in
Visibility 6.2 miles
Clouds Mostly Cloudy 3000 ft
Windchill 24 °F
Dew Point 28 °F
Humidity 87%
Rainfall 0.00 in
Snow Depth Not available.
7:45 AM 5:20 PM
Waxing Crescent, 16% visible
METAR LTAZ 031720Z 12009KT 9999 BKN030 00/M02 Q1025 RMK RWY29 12006KT
Pressure 30.27 in
Visibility 6.2 miles
Clouds Mostly Cloudy 3000 ft
Windchill 24 °F
Dew Point 28 °F
Humidity 87%
Rainfall 0.00 in
Snow Depth Not available.
7:45 AM 5:20 PM
Waxing Crescent, 16% visible
METAR LTAZ 031720Z 12009KT 9999 BKN030 00/M02 Q1025 RMK RWY29 12006KT

10-Day Weather Forecast

×

Almanac

Astronomy

Dec. 03, 2016 Rise Set
Actual Time
Civil Twilight
Nautical Twilight
Astronomical Twilight
Moon
Length of Visible Light
Length of Day
Tomorrow will be .
, % of the Moon is Illuminated

Today's Extremes

Country Highs Country Lows

Community

WunderPhotos

Upload Photos

1,955,452 photos uploaded!

WunderBlog® & News

Nearby

Air Quality

  Air Quality AQ Index Pollutant
Not available.

Snow Depth

Station Depth Elevation

Earthquake Activity

City Distance Mag. Time & Date
Minimum magnitude displayed is 2.5.

Coastal Water Temperatures

Place Temperature

Stations

Nearby Weather Stations

Station Location Temp. Windchill Dew Point Humidity Wind Precip. Elev Updated Type